sensor_id;sensor_type;location;lat;lon;timestamp;temperature;humidity
16229;DHT22;8222;51.462;12.630;2023-08-07T00:01:16;16.90;99.90
16229;DHT22;8222;51.462;12.630;2023-08-07T00:03:42;16.90;99.90
16229;DHT22;8222;51.462;12.630;2023-08-07T00:06:10;16.90;99.90
16229;DHT22;8222;51.462;12.630;2023-08-07T00:08:36;16.90;99.90
16229;DHT22;8222;51.462;12.630;2023-08-07T00:11:10;16.90;99.90
16229;DHT22;8222;51.462;12.630;2023-08-07T00:13:38;16.80;99.90
16229;DHT22;8222;51.462;12.630;2023-08-07T00:16:07;16.80;99.90
16229;DHT22;8222;51.462;12.630;2023-08-07T00:18:35;16.90;99.90
16229;DHT22;8222;51.462;12.630;2023-08-07T00:21:04;16.80;99.90
16229;DHT22;8222;51.462;12.630;2023-08-07T00:23:29;16.90;99.90
16229;DHT22;8222;51.462;12.630;2023-08-07T00:25:55;16.80;99.90
16229;DHT22;8222;51.462;12.630;2023-08-07T00:28:23;16.80;99.90
16229;DHT22;8222;51.462;12.630;2023-08-07T00:30:51;16.80;99.90
16229;DHT22;8222;51.462;12.630;2023-08-07T00:33:16;16.80;99.90
16229;DHT22;8222;51.462;12.630;2023-08-07T00:35:42;16.80;99.90
16229;DHT22;8222;51.462;12.630;2023-08-07T00:38:08;16.90;99.90
16229;DHT22;8222;51.462;12.630;2023-08-07T00:40:40;16.90;99.90
16229;DHT22;8222;51.462;12.630;2023-08-07T00:43:06;17.00;99.90
16229;DHT22;8222;51.462;12.630;2023-08-07T00:45:43;17.00;99.90
16229;DHT22;8222;51.462;12.630;2023-08-07T00:48:09;17.00;99.90
16229;DHT22;8222;51.462;12.630;2023-08-07T00:50:39;17.10;99.90
16229;DHT22;8222;51.462;12.630;2023-08-07T00:53:05;17.20;99.90
16229;DHT22;8222;51.462;12.630;2023-08-07T00:55:34;17.30;99.90
16229;DHT22;8222;51.462;12.630;2023-08-07T00:58:00;17.30;99.90
16229;DHT22;8222;51.462;12.630;2023-08-07T01:03:19;17.50;99.90
16229;DHT22;8222;51.462;12.630;2023-08-07T01:05:45;17.50;99.90
16229;DHT22;8222;51.462;12.630;2023-08-07T01:08:11;17.50;99.90
16229;DHT22;8222;51.462;12.630;2023-08-07T01:13:40;17.50;99.90
16229;DHT22;8222;51.462;12.630;2023-08-07T01:16:21;17.30;99.90
16229;DHT22;8222;51.462;12.630;2023-08-07T01:18:50;17.10;99.90
16229;DHT22;8222;51.462;12.630;2023-08-07T01:21:19;17.00;99.90
16229;DHT22;8222;51.462;12.630;2023-08-07T01:23:48;16.90;99.90
16229;DHT22;8222;51.462;12.630;2023-08-07T01:26:16;16.80;99.90
16229;DHT22;8222;51.462;12.630;2023-08-07T01:29:22;16.60;99.90
16229;DHT22;8222;51.462;12.630;2023-08-07T01:31:56;16.70;99.90
16229;DHT22;8222;51.462;12.630;2023-08-07T01:34:23;16.40;99.90
16229;DHT22;8222;51.462;12.630;2023-08-07T01:36:51;16.30;99.90
16229;DHT22;8222;51.462;12.630;2023-08-07T01:39:18;16.10;99.90
16229;DHT22;8222;51.462;12.630;2023-08-07T01:41:47;16.10;99.90
16229;DHT22;8222;51.462;12.630;2023-08-07T01:44:13;16.10;99.90
16229;DHT22;8222;51.462;12.630;2023-08-07T01:46:40;16.00;99.90
16229;DHT22;8222;51.462;12.630;2023-08-07T01:49:06;15.90;99.90
16229;DHT22;8222;51.462;12.630;2023-08-07T01:51:32;15.90;99.90
16229;DHT22;8222;51.462;12.630;2023-08-07T01:53:59;15.90;99.90
16229;DHT22;8222;51.462;12.630;2023-08-07T01:56:25;15.90;99.90
16229;DHT22;8222;51.462;12.630;2023-08-07T01:58:51;15.90;99.90
16229;DHT22;8222;51.462;12.630;2023-08-07T02:01:16;15.90;99.90
16229;DHT22;8222;51.462;12.630;2023-08-07T02:03:42;15.90;99.90
16229;DHT22;8222;51.462;12.630;2023-08-07T02:06:08;15.90;99.90
16229;DHT22;8222;51.462;12.630;2023-08-07T02:08:33;16.00;99.90
16229;DHT22;8222;51.462;12.630;2023-08-07T02:10:59;16.10;99.90
16229;DHT22;8222;51.462;12.630;2023-08-07T02:13:29;16.10;99.90
16229;DHT22;8222;51.462;12.630;2023-08-07T02:15:57;16.20;99.90
16229;DHT22;8222;51.462;12.630;2023-08-07T02:18:25;16.30;99.90
16229;DHT22;8222;51.462;12.630;2023-08-07T02:20:53;16.40;99.90
16229;DHT22;8222;51.462;12.630;2023-08-07T02:23:19;16.50;99.90
16229;DHT22;8222;51.462;12.630;2023-08-07T02:25:51;16.70;99.90
16229;DHT22;8222;51.462;12.630;2023-08-07T02:28:19;16.60;99.90
16229;DHT22;8222;51.462;12.630;2023-08-07T02:30:47;16.60;99.90
16229;DHT22;8222;51.462;12.630;2023-08-07T02:33:16;16.60;99.90
16229;DHT22;8222;51.462;12.630;2023-08-07T02:35:44;16.70;99.90
16229;DHT22;8222;51.462;12.630;2023-08-07T02:38:13;16.60;99.90
16229;DHT22;8222;51.462;12.630;2023-08-07T02:40:41;16.70;99.90
16229;DHT22;8222;51.462;12.630;2023-08-07T02:43:12;16.70;99.90
16229;DHT22;8222;51.462;12.630;2023-08-07T02:45:37;16.60;99.90
16229;DHT22;8222;51.462;12.630;2023-08-07T02:48:07;16.60;99.90
16229;DHT22;8222;51.462;12.630;2023-08-07T02:50:33;16.60;99.90
16229;DHT22;8222;51.462;12.630;2023-08-07T02:53:00;16.60;99.90
16229;DHT22;8222;51.462;12.630;2023-08-07T02:55:27;16.60;99.90
16229;DHT22;8222;51.462;12.630;2023-08-07T02:57:56;16.70;99.90
16229;DHT22;8222;51.462;12.630;2023-08-07T03:00:24;16.90;99.90
16229;DHT22;8222;51.462;12.630;2023-08-07T03:02:49;17.00;99.90
16229;DHT22;8222;51.462;12.630;2023-08-07T03:05:18;17.00;99.90
16229;DHT22;8222;51.462;12.630;2023-08-07T03:07:43;17.00;99.90
16229;DHT22;8222;51.462;12.630;2023-08-07T03:10:09;16.90;99.90
16229;DHT22;8222;51.462;12.630;2023-08-07T03:12:37;16.90;99.90
16229;DHT22;8222;51.462;12.630;2023-08-07T03:15:05;17.10;99.90
16229;DHT22;8222;51.462;12.630;2023-08-07T03:17:33;17.20;99.90
16229;DHT22;8222;51.462;12.630;2023-08-07T03:20:01;17.00;99.90
16229;DHT22;8222;51.462;12.630;2023-08-07T03:22:29;17.00;99.90
16229;DHT22;8222;51.462;12.630;2023-08-07T03:24:59;17.10;99.90
16229;DHT22;8222;51.462;12.630;2023-08-07T03:27:25;17.10;99.90
16229;DHT22;8222;51.462;12.630;2023-08-07T03:29:52;17.10;99.90
16229;DHT22;8222;51.462;12.630;2023-08-07T03:32:20;17.00;99.90
16229;DHT22;8222;51.462;12.630;2023-08-07T03:34:48;17.00;99.90
16229;DHT22;8222;51.462;12.630;2023-08-07T03:37:16;16.80;99.90
16229;DHT22;8222;51.462;12.630;2023-08-07T03:39:44;16.80;99.90
16229;DHT22;8222;51.462;12.630;2023-08-07T03:42:13;16.70;99.90
16229;DHT22;8222;51.462;12.630;2023-08-07T03:44:40;16.60;99.90
16229;DHT22;8222;51.462;12.630;2023-08-07T03:47:06;16.60;99.90
16229;DHT22;8222;51.462;12.630;2023-08-07T03:49:34;16.50;99.90
16229;DHT22;8222;51.462;12.630;2023-08-07T03:51:59;16.60;99.90
16229;DHT22;8222;51.462;12.630;2023-08-07T03:54:25;16.60;99.90
16229;DHT22;8222;51.462;12.630;2023-08-07T03:56:53;16.60;99.90
16229;DHT22;8222;51.462;12.630;2023-08-07T03:59:19;16.60;99.90
16229;DHT22;8222;51.462;12.630;2023-08-07T04:01:44;16.60;99.90
16229;DHT22;8222;51.462;12.630;2023-08-07T04:04:10;16.60;99.90
16229;DHT22;8222;51.462;12.630;2023-08-07T04:06:36;16.60;99.90
16229;DHT22;8222;51.462;12.630;2023-08-07T04:09:01;16.60;99.90
16229;DHT22;8222;51.462;12.630;2023-08-07T04:11:28;16.70;99.90
16229;DHT22;8222;51.462;12.630;2023-08-07T04:13:55;16.90;99.90
16229;DHT22;8222;51.462;12.630;2023-08-07T04:16:20;17.00;99.90
16229;DHT22;8222;51.462;12.630;2023-08-07T04:18:48;17.10;99.90
16229;DHT22;8222;51.462;12.630;2023-08-07T04:21:14;17.00;99.90
16229;DHT22;8222;51.462;12.630;2023-08-07T04:23:42;16.90;99.90
16229;DHT22;8222;51.462;12.630;2023-08-07T04:26:09;16.90;99.90
16229;DHT22;8222;51.462;12.630;2023-08-07T04:28:35;17.00;99.90
16229;DHT22;8222;51.462;12.630;2023-08-07T04:31:01;17.00;99.90
16229;DHT22;8222;51.462;12.630;2023-08-07T04:33:28;17.20;99.90
16229;DHT22;8222;51.462;12.630;2023-08-07T04:35:53;17.30;99.90
16229;DHT22;8222;51.462;12.630;2023-08-07T04:38:19;17.40;99.90
16229;DHT22;8222;51.462;12.630;2023-08-07T04:40:50;17.40;99.90
16229;DHT22;8222;51.462;12.630;2023-08-07T04:43:19;17.40;99.90
16229;DHT22;8222;51.462;12.630;2023-08-07T04:45:49;17.40;99.90
16229;DHT22;8222;51.462;12.630;2023-08-07T04:48:15;17.50;99.90
16229;DHT22;8222;51.462;12.630;2023-08-07T04:50:43;17.50;99.90
16229;DHT22;8222;51.462;12.630;2023-08-07T04:53:11;17.50;99.90
16229;DHT22;8222;51.462;12.630;2023-08-07T04:55:42;17.50;99.90
16229;DHT22;8222;51.462;12.630;2023-08-07T04:58:07;17.30;99.90
16229;DHT22;8222;51.462;12.630;2023-08-07T05:00:36;17.40;99.90
16229;DHT22;8222;51.462;12.630;2023-08-07T05:03:06;17.40;99.90
16229;DHT22;8222;51.462;12.630;2023-08-07T05:05:35;17.40;99.90
16229;DHT22;8222;51.462;12.630;2023-08-07T05:08:03;17.60;99.90
16229;DHT22;8222;51.462;12.630;2023-08-07T05:10:31;17.60;99.90
16229;DHT22;8222;51.462;12.630;2023-08-07T05:13:01;17.80;99.90
16229;DHT22;8222;51.462;12.630;2023-08-07T05:15:30;17.70;99.90
16229;DHT22;8222;51.462;12.630;2023-08-07T05:18:01;17.80;99.90
16229;DHT22;8222;51.462;12.630;2023-08-07T05:20:26;17.90;99.90
16229;DHT22;8222;51.462;12.630;2023-08-07T05:22:52;17.90;99.90
16229;DHT22;8222;51.462;12.630;2023-08-07T05:25:20;18.00;99.90
16229;DHT22;8222;51.462;12.630;2023-08-07T05:27:46;18.00;99.90
16229;DHT22;8222;51.462;12.630;2023-08-07T05:30:13;18.10;99.90
16229;DHT22;8222;51.462;12.630;2023-08-07T05:32:43;18.10;99.90
16229;DHT22;8222;51.462;12.630;2023-08-07T05:35:11;18.00;99.90
16229;DHT22;8222;51.462;12.630;2023-08-07T05:37:40;18.20;99.90
16229;DHT22;8222;51.462;12.630;2023-08-07T05:40:08;18.20;99.90
16229;DHT22;8222;51.462;12.630;2023-08-07T05:42:38;18.30;99.90
16229;DHT22;8222;51.462;12.630;2023-08-07T05:45:04;18.40;99.90
16229;DHT22;8222;51.462;12.630;2023-08-07T05:47:29;18.30;99.90
16229;DHT22;8222;51.462;12.630;2023-08-07T05:49:55;18.50;99.90
16229;DHT22;8222;51.462;12.630;2023-08-07T05:52:23;18.60;99.90
16229;DHT22;8222;51.462;12.630;2023-08-07T05:54:49;18.60;99.90
16229;DHT22;8222;51.462;12.630;2023-08-07T05:57:17;18.70;99.90
16229;DHT22;8222;51.462;12.630;2023-08-07T05:59:47;18.60;99.90
16229;DHT22;8222;51.462;12.630;2023-08-07T06:02:15;18.60;99.90
16229;DHT22;8222;51.462;12.630;2023-08-07T06:04:43;18.70;99.90
16229;DHT22;8222;51.462;12.630;2023-08-07T06:07:09;18.60;99.90
16229;DHT22;8222;51.462;12.630;2023-08-07T06:09:35;18.60;99.90
16229;DHT22;8222;51.462;12.630;2023-08-07T06:12:01;18.80;99.90
16229;DHT22;8222;51.462;12.630;2023-08-07T06:14:31;18.80;99.90
16229;DHT22;8222;51.462;12.630;2023-08-07T06:16:57;18.80;99.90
16229;DHT22;8222;51.462;12.630;2023-08-07T06:19:23;18.90;99.90
16229;DHT22;8222;51.462;12.630;2023-08-07T06:21:49;18.90;99.90
16229;DHT22;8222;51.462;12.630;2023-08-07T06:24:19;19.00;99.90
16229;DHT22;8222;51.462;12.630;2023-08-07T06:26:47;19.10;99.90
16229;DHT22;8222;51.462;12.630;2023-08-07T06:29:13;19.00;99.90
16229;DHT22;8222;51.462;12.630;2023-08-07T06:31:44;18.90;99.90
16229;DHT22;8222;51.462;12.630;2023-08-07T06:34:14;18.80;99.90
16229;DHT22;8222;51.462;12.630;2023-08-07T06:36:40;18.80;99.90
16229;DHT22;8222;51.462;12.630;2023-08-07T06:39:06;18.60;99.90
16229;DHT22;8222;51.462;12.630;2023-08-07T06:41:31;18.70;99.90
16229;DHT22;8222;51.462;12.630;2023-08-07T06:44:02;18.70;99.90
16229;DHT22;8222;51.462;12.630;2023-08-07T06:46:33;18.70;99.90
16229;DHT22;8222;51.462;12.630;2023-08-07T06:49:00;18.80;99.90
16229;DHT22;8222;51.462;12.630;2023-08-07T06:51:29;18.90;99.90
16229;DHT22;8222;51.462;12.630;2023-08-07T06:53:54;18.80;99.90
16229;DHT22;8222;51.462;12.630;2023-08-07T06:56:22;18.80;99.90
16229;DHT22;8222;51.462;12.630;2023-08-07T06:58:48;18.80;99.90
16229;DHT22;8222;51.462;12.630;2023-08-07T07:01:14;18.60;99.90
16229;DHT22;8222;51.462;12.630;2023-08-07T07:03:39;18.60;99.90
16229;DHT22;8222;51.462;12.630;2023-08-07T07:06:07;18.70;99.90
16229;DHT22;8222;51.462;12.630;2023-08-07T07:08:35;19.00;99.90
16229;DHT22;8222;51.462;12.630;2023-08-07T07:11:01;19.10;99.90
16229;DHT22;8222;51.462;12.630;2023-08-07T07:13:26;19.10;99.90
16229;DHT22;8222;51.462;12.630;2023-08-07T07:15:54;19.20;99.90
16229;DHT22;8222;51.462;12.630;2023-08-07T07:18:20;19.30;99.90
16229;DHT22;8222;51.462;12.630;2023-08-07T07:20:46;19.50;99.90
16229;DHT22;8222;51.462;12.630;2023-08-07T07:23:11;19.80;99.90
16229;DHT22;8222;51.462;12.630;2023-08-07T07:25:37;19.90;99.90
16229;DHT22;8222;51.462;12.630;2023-08-07T07:28:05;20.00;99.90
16229;DHT22;8222;51.462;12.630;2023-08-07T07:30:35;19.80;99.90
16229;DHT22;8222;51.462;12.630;2023-08-07T07:33:01;19.80;99.90
16229;DHT22;8222;51.462;12.630;2023-08-07T07:35:27;19.80;99.90
16229;DHT22;8222;51.462;12.630;2023-08-07T07:37:54;20.00;99.90
16229;DHT22;8222;51.462;12.630;2023-08-07T07:40:23;19.90;99.90
16229;DHT22;8222;51.462;12.630;2023-08-07T07:42:48;20.00;99.90
16229;DHT22;8222;51.462;12.630;2023-08-07T07:45:16;20.10;99.90
16229;DHT22;8222;51.462;12.630;2023-08-07T07:47:42;20.30;99.90
16229;DHT22;8222;51.462;12.630;2023-08-07T07:50:09;20.20;99.90
16229;DHT22;8222;51.462;12.630;2023-08-07T07:52:37;20.50;99.90
16229;DHT22;8222;51.462;12.630;2023-08-07T07:55:02;20.60;99.90
16229;DHT22;8222;51.462;12.630;2023-08-07T07:57:28;20.80;99.90
16229;DHT22;8222;51.462;12.630;2023-08-07T07:59:54;20.80;99.90
16229;DHT22;8222;51.462;12.630;2023-08-07T08:02:22;20.70;99.90
16229;DHT22;8222;51.462;12.630;2023-08-07T08:04:51;20.70;99.90
16229;DHT22;8222;51.462;12.630;2023-08-07T08:07:22;20.60;99.90
16229;DHT22;8222;51.462;12.630;2023-08-07T08:09:47;20.80;99.90
16229;DHT22;8222;51.462;12.630;2023-08-07T08:12:18;21.00;99.90
16229;DHT22;8222;51.462;12.630;2023-08-07T08:14:46;21.30;99.90
16229;DHT22;8222;51.462;12.630;2023-08-07T08:17:16;21.70;99.90
16229;DHT22;8222;51.462;12.630;2023-08-07T08:19:42;21.80;99.90
16229;DHT22;8222;51.462;12.630;2023-08-07T08:22:10;21.60;99.90
16229;DHT22;8222;51.462;12.630;2023-08-07T08:24:36;21.40;99.90
16229;DHT22;8222;51.462;12.630;2023-08-07T08:27:02;21.30;99.90
16229;DHT22;8222;51.462;12.630;2023-08-07T08:29:30;21.40;99.90
16229;DHT22;8222;51.462;12.630;2023-08-07T08:31:58;21.50;99.90
16229;DHT22;8222;51.462;12.630;2023-08-07T08:34:26;21.20;99.90
16229;DHT22;8222;51.462;12.630;2023-08-07T08:36:56;21.10;99.90
16229;DHT22;8222;51.462;12.630;2023-08-07T08:39:24;20.70;99.90
16229;DHT22;8222;51.462;12.630;2023-08-07T08:41:50;20.40;99.90
16229;DHT22;8222;51.462;12.630;2023-08-07T08:44:19;20.10;99.90
16229;DHT22;8222;51.462;12.630;2023-08-07T08:46:48;20.10;99.90
16229;DHT22;8222;51.462;12.630;2023-08-07T08:49:16;20.10;99.90
16229;DHT22;8222;51.462;12.630;2023-08-07T08:51:48;20.60;99.90
16229;DHT22;8222;51.462;12.630;2023-08-07T08:54:17;21.00;99.90
16229;DHT22;8222;51.462;12.630;2023-08-07T08:56:45;21.40;99.90
16229;DHT22;8222;51.462;12.630;2023-08-07T08:59:11;21.50;99.90
16229;DHT22;8222;51.462;12.630;2023-08-07T09:01:37;21.40;99.90
16229;DHT22;8222;51.462;12.630;2023-08-07T09:04:03;21.60;99.90
16229;DHT22;8222;51.462;12.630;2023-08-07T09:06:32;21.70;99.90
16229;DHT22;8222;51.462;12.630;2023-08-07T09:09:03;21.90;99.90
16229;DHT22;8222;51.462;12.630;2023-08-07T09:11:34;21.80;99.90
16229;DHT22;8222;51.462;12.630;2023-08-07T09:14:02;21.70;99.90
16229;DHT22;8222;51.462;12.630;2023-08-07T09:16:30;21.50;99.90
16229;DHT22;8222;51.462;12.630;2023-08-07T09:18:55;21.10;99.90
16229;DHT22;8222;51.462;12.630;2023-08-07T09:21:24;20.90;99.90
16229;DHT22;8222;51.462;12.630;2023-08-07T09:23:50;20.40;99.90
16229;DHT22;8222;51.462;12.630;2023-08-07T09:26:22;19.60;99.90
16229;DHT22;8222;51.462;12.630;2023-08-07T09:28:53;19.20;99.90
16229;DHT22;8222;51.462;12.630;2023-08-07T09:31:26;18.90;99.90
16229;DHT22;8222;51.462;12.630;2023-08-07T09:33:52;19.10;99.90
16229;DHT22;8222;51.462;12.630;2023-08-07T09:36:18;19.30;99.90
16229;DHT22;8222;51.462;12.630;2023-08-07T09:38:51;19.50;99.90
16229;DHT22;8222;51.462;12.630;2023-08-07T09:41:18;19.60;99.90
16229;DHT22;8222;51.462;12.630;2023-08-07T09:43:44;19.70;99.90
16229;DHT22;8222;51.462;12.630;2023-08-07T09:46:10;20.00;99.90
16229;DHT22;8222;51.462;12.630;2023-08-07T09:48:43;20.20;99.90
16229;DHT22;8222;51.462;12.630;2023-08-07T09:51:09;20.40;99.90
16229;DHT22;8222;51.462;12.630;2023-08-07T09:53:37;20.40;99.90
16229;DHT22;8222;51.462;12.630;2023-08-07T09:56:06;20.50;99.90
16229;DHT22;8222;51.462;12.630;2023-08-07T09:58:32;20.60;99.90
16229;DHT22;8222;51.462;12.630;2023-08-07T10:01:00;20.60;99.90
16229;DHT22;8222;51.462;12.630;2023-08-07T10:03:26;20.60;99.90
16229;DHT22;8222;51.462;12.630;2023-08-07T10:05:52;20.40;99.90
16229;DHT22;8222;51.462;12.630;2023-08-07T10:08:18;20.40;99.90
16229;DHT22;8222;51.462;12.630;2023-08-07T10:10:46;20.40;99.90
16229;DHT22;8222;51.462;12.630;2023-08-07T10:13:13;20.30;99.90
16229;DHT22;8222;51.462;12.630;2023-08-07T10:15:41;20.40;99.90
16229;DHT22;8222;51.462;12.630;2023-08-07T10:18:13;20.40;99.90
16229;DHT22;8222;51.462;12.630;2023-08-07T10:20:39;20.60;99.90
16229;DHT22;8222;51.462;12.630;2023-08-07T10:23:08;20.60;99.90
16229;DHT22;8222;51.462;12.630;2023-08-07T10:25:39;20.50;99.90
16229;DHT22;8222;51.462;12.630;2023-08-07T10:28:10;20.90;99.90
16229;DHT22;8222;51.462;12.630;2023-08-07T10:30:39;21.10;99.90
16229;DHT22;8222;51.462;12.630;2023-08-07T10:33:12;21.20;99.90
16229;DHT22;8222;51.462;12.630;2023-08-07T10:35:45;21.40;99.90
16229;DHT22;8222;51.462;12.630;2023-08-07T10:38:12;21.50;99.90
16229;DHT22;8222;51.462;12.630;2023-08-07T10:41:00;21.20;99.90
16229;DHT22;8222;51.462;12.630;2023-08-07T10:43:26;20.80;99.90
16229;DHT22;8222;51.462;12.630;2023-08-07T10:46:03;20.50;99.90
16229;DHT22;8222;51.462;12.630;2023-08-07T10:48:55;20.40;99.90
16229;DHT22;8222;51.462;12.630;2023-08-07T10:51:29;20.60;99.90
16229;DHT22;8222;51.462;12.630;2023-08-07T10:54:02;20.70;99.90
16229;DHT22;8222;51.462;12.630;2023-08-07T10:56:37;20.80;99.90
16229;DHT22;8222;51.462;12.630;2023-08-07T10:59:13;20.90;99.90
16229;DHT22;8222;51.462;12.630;2023-08-07T11:01:42;21.00;99.90
16229;DHT22;8222;51.462;12.630;2023-08-07T11:04:15;21.20;99.90
16229;DHT22;8222;51.462;12.630;2023-08-07T11:06:47;21.40;99.90
16229;DHT22;8222;51.462;12.630;2023-08-07T11:09:13;21.40;99.90
16229;DHT22;8222;51.462;12.630;2023-08-07T11:11:44;21.50;99.90
16229;DHT22;8222;51.462;12.630;2023-08-07T11:14:14;21.90;99.90
16229;DHT22;8222;51.462;12.630;2023-08-07T11:16:40;21.80;99.90
16229;DHT22;8222;51.462;12.630;2023-08-07T11:19:06;21.70;99.90
16229;DHT22;8222;51.462;12.630;2023-08-07T11:21:37;21.90;99.90
16229;DHT22;8222;51.462;12.630;2023-08-07T11:24:03;22.20;99.90
16229;DHT22;8222;51.462;12.630;2023-08-07T11:26:31;22.40;99.90
16229;DHT22;8222;51.462;12.630;2023-08-07T11:28:59;22.60;99.90
16229;DHT22;8222;51.462;12.630;2023-08-07T11:31:27;22.50;99.90
16229;DHT22;8222;51.462;12.630;2023-08-07T11:33:59;22.20;99.90
16229;DHT22;8222;51.462;12.630;2023-08-07T11:36:28;22.00;99.90
16229;DHT22;8222;51.462;12.630;2023-08-07T11:38:54;22.10;99.90
16229;DHT22;8222;51.462;12.630;2023-08-07T11:41:20;22.10;99.90
16229;DHT22;8222;51.462;12.630;2023-08-07T11:43:49;22.10;99.90
16229;DHT22;8222;51.462;12.630;2023-08-07T11:46:15;22.00;99.90
16229;DHT22;8222;51.462;12.630;2023-08-07T11:48:44;21.60;99.90
16229;DHT22;8222;51.462;12.630;2023-08-07T11:51:12;21.10;99.90
16229;DHT22;8222;51.462;12.630;2023-08-07T11:53:40;20.60;99.90
16229;DHT22;8222;51.462;12.630;2023-08-07T11:56:17;20.40;99.90
16229;DHT22;8222;51.462;12.630;2023-08-07T11:58:45;19.90;99.90
16229;DHT22;8222;51.462;12.630;2023-08-07T12:01:21;19.60;99.90
16229;DHT22;8222;51.462;12.630;2023-08-07T12:06:37;18.50;99.90
16229;DHT22;8222;51.462;12.630;2023-08-07T12:09:06;18.20;99.90
16229;DHT22;8222;51.462;12.630;2023-08-07T12:11:38;18.30;99.90
16229;DHT22;8222;51.462;12.630;2023-08-07T12:14:06;18.10;99.90
16229;DHT22;8222;51.462;12.630;2023-08-07T12:16:33;17.90;99.90
16229;DHT22;8222;51.462;12.630;2023-08-07T12:19:02;17.70;99.90
16229;DHT22;8222;51.462;12.630;2023-08-07T12:21:29;17.60;99.90
16229;DHT22;8222;51.462;12.630;2023-08-07T12:24:01;17.80;99.90
16229;DHT22;8222;51.462;12.630;2023-08-07T12:26:26;18.10;99.90
16229;DHT22;8222;51.462;12.630;2023-08-07T12:28:53;18.40;99.90
16229;DHT22;8222;51.462;12.630;2023-08-07T12:31:19;18.70;99.90
16229;DHT22;8222;51.462;12.630;2023-08-07T12:33:44;19.00;99.90
16229;DHT22;8222;51.462;12.630;2023-08-07T12:36:15;19.30;99.90
16229;DHT22;8222;51.462;12.630;2023-08-07T12:38:41;19.80;99.90
16229;DHT22;8222;51.462;12.630;2023-08-07T12:41:07;20.00;99.90
16229;DHT22;8222;51.462;12.630;2023-08-07T12:43:35;20.00;99.90
16229;DHT22;8222;51.462;12.630;2023-08-07T12:46:01;20.20;99.90
16229;DHT22;8222;51.462;12.630;2023-08-07T12:48:27;20.40;99.90
16229;DHT22;8222;51.462;12.630;2023-08-07T12:50:54;20.70;99.90
16229;DHT22;8222;51.462;12.630;2023-08-07T12:53:21;20.60;99.90
16229;DHT22;8222;51.462;12.630;2023-08-07T12:55:50;20.40;99.90
16229;DHT22;8222;51.462;12.630;2023-08-07T12:58:15;20.00;99.90
16229;DHT22;8222;51.462;12.630;2023-08-07T13:00:44;19.60;99.90
16229;DHT22;8222;51.462;12.630;2023-08-07T13:03:09;19.50;99.90
16229;DHT22;8222;51.462;12.630;2023-08-07T13:05:35;19.60;99.90
16229;DHT22;8222;51.462;12.630;2023-08-07T13:08:03;19.80;99.90
16229;DHT22;8222;51.462;12.630;2023-08-07T13:10:34;19.90;99.90
16229;DHT22;8222;51.462;12.630;2023-08-07T13:13:02;19.70;99.90
16229;DHT22;8222;51.462;12.630;2023-08-07T13:15:30;20.00;99.90
16229;DHT22;8222;51.462;12.630;2023-08-07T13:17:58;20.20;99.90
16229;DHT22;8222;51.462;12.630;2023-08-07T13:20:26;20.40;99.90
16229;DHT22;8222;51.462;12.630;2023-08-07T13:22:52;20.60;99.90
16229;DHT22;8222;51.462;12.630;2023-08-07T13:25:22;20.70;99.90
16229;DHT22;8222;51.462;12.630;2023-08-07T13:27:48;21.00;99.90
16229;DHT22;8222;51.462;12.630;2023-08-07T13:30:13;21.10;99.90
16229;DHT22;8222;51.462;12.630;2023-08-07T13:32:44;21.10;99.90
16229;DHT22;8222;51.462;12.630;2023-08-07T13:35:09;21.20;99.90
16229;DHT22;8222;51.462;12.630;2023-08-07T13:37:37;21.10;99.90
16229;DHT22;8222;51.462;12.630;2023-08-07T13:40:05;20.90;99.90
16229;DHT22;8222;51.462;12.630;2023-08-07T13:42:30;20.80;99.90
16229;DHT22;8222;51.462;12.630;2023-08-07T13:44:57;20.90;99.90
16229;DHT22;8222;51.462;12.630;2023-08-07T13:47:23;21.00;99.90
16229;DHT22;8222;51.462;12.630;2023-08-07T13:49:53;21.00;99.90
16229;DHT22;8222;51.462;12.630;2023-08-07T13:52:20;20.80;99.90
16229;DHT22;8222;51.462;12.630;2023-08-07T13:54:48;21.00;99.90
16229;DHT22;8222;51.462;12.630;2023-08-07T13:57:16;21.10;99.90
16229;DHT22;8222;51.462;12.630;2023-08-07T13:59:44;21.40;99.90
16229;DHT22;8222;51.462;12.630;2023-08-07T14:02:09;21.70;99.90
16229;DHT22;8222;51.462;12.630;2023-08-07T14:04:35;22.00;99.90
16229;DHT22;8222;51.462;12.630;2023-08-07T14:07:02;22.20;99.90
16229;DHT22;8222;51.462;12.630;2023-08-07T14:09:31;22.40;99.90
16229;DHT22;8222;51.462;12.630;2023-08-07T14:11:57;22.20;99.90
16229;DHT22;8222;51.462;12.630;2023-08-07T14:14:23;22.10;99.90
16229;DHT22;8222;51.462;12.630;2023-08-07T14:16:50;22.40;99.90
16229;DHT22;8222;51.462;12.630;2023-08-07T14:19:18;22.80;99.90
16229;DHT22;8222;51.462;12.630;2023-08-07T14:21:44;23.00;99.90
16229;DHT22;8222;51.462;12.630;2023-08-07T14:24:10;23.20;99.90
16229;DHT22;8222;51.462;12.630;2023-08-07T14:26:35;23.30;99.90
16229;DHT22;8222;51.462;12.630;2023-08-07T14:29:03;23.20;99.90
16229;DHT22;8222;51.462;12.630;2023-08-07T14:31:29;22.90;99.90
16229;DHT22;8222;51.462;12.630;2023-08-07T14:33:55;22.50;99.90
16229;DHT22;8222;51.462;12.630;2023-08-07T14:36:21;22.00;99.90
16229;DHT22;8222;51.462;12.630;2023-08-07T14:38:47;21.80;99.90
16229;DHT22;8222;51.462;12.630;2023-08-07T14:41:13;21.50;99.90
16229;DHT22;8222;51.462;12.630;2023-08-07T14:43:38;21.30;99.90
16229;DHT22;8222;51.462;12.630;2023-08-07T14:46:04;20.90;99.90
16229;DHT22;8222;51.462;12.630;2023-08-07T14:48:30;20.70;99.90
16229;DHT22;8222;51.462;12.630;2023-08-07T14:50:55;20.70;99.90
16229;DHT22;8222;51.462;12.630;2023-08-07T14:53:25;20.60;99.90
16229;DHT22;8222;51.462;12.630;2023-08-07T14:55:50;20.10;99.90
16229;DHT22;8222;51.462;12.630;2023-08-07T14:58:16;19.90;99.90
16229;DHT22;8222;51.462;12.630;2023-08-07T15:00:42;19.80;99.90
16229;DHT22;8222;51.462;12.630;2023-08-07T15:03:08;19.50;99.90
16229;DHT22;8222;51.462;12.630;2023-08-07T15:05:33;19.00;99.90
16229;DHT22;8222;51.462;12.630;2023-08-07T15:08:01;18.70;99.90
16229;DHT22;8222;51.462;12.630;2023-08-07T15:10:30;18.70;99.90
16229;DHT22;8222;51.462;12.630;2023-08-07T15:12:58;18.90;99.90
16229;DHT22;8222;51.462;12.630;2023-08-07T15:15:24;19.20;99.90
16229;DHT22;8222;51.462;12.630;2023-08-07T15:17:50;19.40;99.90
16229;DHT22;8222;51.462;12.630;2023-08-07T15:20:18;19.60;99.90
16229;DHT22;8222;51.462;12.630;2023-08-07T15:22:46;20.00;99.90
16229;DHT22;8222;51.462;12.630;2023-08-07T15:25:13;20.40;99.90
16229;DHT22;8222;51.462;12.630;2023-08-07T15:27:41;20.60;99.90
16229;DHT22;8222;51.462;12.630;2023-08-07T15:30:07;21.00;99.90
16229;DHT22;8222;51.462;12.630;2023-08-07T15:32:33;21.20;99.90
16229;DHT22;8222;51.462;12.630;2023-08-07T15:35:04;21.40;99.90
16229;DHT22;8222;51.462;12.630;2023-08-07T15:37:30;20.80;99.90
16229;DHT22;8222;51.462;12.630;2023-08-07T15:39:57;20.30;99.90
16229;DHT22;8222;51.462;12.630;2023-08-07T15:42:23;19.80;99.90